sensor_id;sensor_type;location;lat;lon;timestamp;P1;durP1;ratioP1;P2;durP2;ratioP2
56481;SDS011;42384;45.186;19.958;2022-12-19T00:01:04;99.35;;;44.90;;
56481;SDS011;42384;45.186;19.958;2022-12-19T00:03:33;104.28;;;46.58;;
56481;SDS011;42384;45.186;19.958;2022-12-19T00:06:00;93.97;;;44.35;;
56481;SDS011;42384;45.186;19.958;2022-12-19T00:08:26;100.63;;;46.30;;
56481;SDS011;42384;45.186;19.958;2022-12-19T00:10:56;103.70;;;47.58;;
56481;SDS011;42384;45.186;19.958;2022-12-19T00:13:23;105.15;;;47.97;;
56481;SDS011;42384;45.186;19.958;2022-12-19T00:15:50;99.75;;;46.28;;
56481;SDS011;42384;45.186;19.958;2022-12-19T00:18:16;106.60;;;49.40;;
56481;SDS011;42384;45.186;19.958;2022-12-19T00:20:43;102.30;;;49.08;;
56481;SDS011;42384;45.186;19.958;2022-12-19T00:23:09;106.40;;;49.05;;
56481;SDS011;42384;45.186;19.958;2022-12-19T00:25:35;111.05;;;48.63;;
56481;SDS011;42384;45.186;19.958;2022-12-19T00:28:04;104.60;;;48.08;;
56481;SDS011;42384;45.186;19.958;2022-12-19T00:30:30;112.18;;;48.10;;
56481;SDS011;42384;45.186;19.958;2022-12-19T00:32:56;101.18;;;46.42;;
56481;SDS011;42384;45.186;19.958;2022-12-19T00:35:23;111.47;;;47.95;;
56481;SDS011;42384;45.186;19.958;2022-12-19T00:37:49;104.20;;;47.15;;
56481;SDS011;42384;45.186;19.958;2022-12-19T00:40:15;105.45;;;49.38;;
56481;SDS011;42384;45.186;19.958;2022-12-19T00:42:41;104.88;;;48.80;;
56481;SDS011;42384;45.186;19.958;2022-12-19T00:45:07;106.72;;;47.03;;
56481;SDS011;42384;45.186;19.958;2022-12-19T00:47:34;104.80;;;48.75;;
56481;SDS011;42384;45.186;19.958;2022-12-19T00:50:00;114.65;;;51.35;;
56481;SDS011;42384;45.186;19.958;2022-12-19T00:52:26;109.00;;;49.38;;
56481;SDS011;42384;45.186;19.958;2022-12-19T00:54:52;113.03;;;49.35;;
56481;SDS011;42384;45.186;19.958;2022-12-19T00:57:18;110.13;;;50.00;;
56481;SDS011;42384;45.186;19.958;2022-12-19T00:59:44;121.57;;;52.08;;
56481;SDS011;42384;45.186;19.958;2022-12-19T01:02:11;119.13;;;51.97;;
56481;SDS011;42384;45.186;19.958;2022-12-19T01:04:37;103.28;;;50.20;;
56481;SDS011;42384;45.186;19.958;2022-12-19T01:07:03;119.65;;;50.45;;
56481;SDS011;42384;45.186;19.958;2022-12-19T01:09:32;129.15;;;55.85;;
56481;SDS011;42384;45.186;19.958;2022-12-19T01:11:59;127.05;;;58.25;;
56481;SDS011;42384;45.186;19.958;2022-12-19T01:14:44;131.68;;;56.08;;
56481;SDS011;42384;45.186;19.958;2022-12-19T01:17:10;117.22;;;54.97;;
56481;SDS011;42384;45.186;19.958;2022-12-19T01:19:37;126.50;;;58.63;;
56481;SDS011;42384;45.186;19.958;2022-12-19T01:22:03;133.93;;;58.60;;
56481;SDS011;42384;45.186;19.958;2022-12-19T01:24:29;141.80;;;57.15;;
56481;SDS011;42384;45.186;19.958;2022-12-19T01:26:55;125.32;;;56.97;;
56481;SDS011;42384;45.186;19.958;2022-12-19T01:29:21;131.90;;;56.75;;
56481;SDS011;42384;45.186;19.958;2022-12-19T01:31:48;129.50;;;55.67;;
56481;SDS011;42384;45.186;19.958;2022-12-19T01:34:14;130.55;;;55.88;;
56481;SDS011;42384;45.186;19.958;2022-12-19T01:36:40;125.78;;;54.90;;
56481;SDS011;42384;45.186;19.958;2022-12-19T01:39:06;125.00;;;54.20;;
56481;SDS011;42384;45.186;19.958;2022-12-19T01:41:33;122.83;;;51.63;;
56481;SDS011;42384;45.186;19.958;2022-12-19T01:49:28;117.80;;;52.25;;
56481;SDS011;42384;45.186;19.958;2022-12-19T01:51:57;131.65;;;54.20;;
56481;SDS011;42384;45.186;19.958;2022-12-19T01:54:26;114.95;;;51.53;;
56481;SDS011;42384;45.186;19.958;2022-12-19T01:56:57;115.78;;;50.70;;
56481;SDS011;42384;45.186;19.958;2022-12-19T01:59:28;118.68;;;51.67;;
56481;SDS011;42384;45.186;19.958;2022-12-19T02:02:02;119.55;;;49.55;;
56481;SDS011;42384;45.186;19.958;2022-12-19T02:04:32;116.05;;;51.72;;
56481;SDS011;42384;45.186;19.958;2022-12-19T02:06:59;109.88;;;49.22;;
56481;SDS011;42384;45.186;19.958;2022-12-19T02:09:26;111.75;;;48.97;;
56481;SDS011;42384;45.186;19.958;2022-12-19T02:11:52;115.20;;;48.35;;
56481;SDS011;42384;45.186;19.958;2022-12-19T02:14:19;108.07;;;46.67;;
56481;SDS011;42384;45.186;19.958;2022-12-19T02:16:48;101.80;;;46.40;;
56481;SDS011;42384;45.186;19.958;2022-12-19T02:19:25;114.45;;;50.17;;
56481;SDS011;42384;45.186;19.958;2022-12-19T02:27:28;99.13;;;43.33;;
56481;SDS011;42384;45.186;19.958;2022-12-19T02:38:35;99.50;;;42.60;;
56481;SDS011;42384;45.186;19.958;2022-12-19T02:41:02;103.57;;;43.97;;
56481;SDS011;42384;45.186;19.958;2022-12-19T02:43:27;111.45;;;44.72;;
56481;SDS011;42384;45.186;19.958;2022-12-19T02:45:54;110.97;;;47.30;;
56481;SDS011;42384;45.186;19.958;2022-12-19T02:48:21;104.78;;;43.80;;
56481;SDS011;42384;45.186;19.958;2022-12-19T02:50:48;106.43;;;45.67;;
56481;SDS011;42384;45.186;19.958;2022-12-19T02:53:14;95.32;;;42.70;;
56481;SDS011;42384;45.186;19.958;2022-12-19T03:11:07;109.28;;;43.67;;
56481;SDS011;42384;45.186;19.958;2022-12-19T03:16:04;111.82;;;45.53;;
56481;SDS011;42384;45.186;19.958;2022-12-19T03:18:32;116.18;;;50.47;;
56481;SDS011;42384;45.186;19.958;2022-12-19T03:23:24;107.63;;;44.47;;
56481;SDS011;42384;45.186;19.958;2022-12-19T03:28:24;130.18;;;51.30;;
56481;SDS011;42384;45.186;19.958;2022-12-19T03:30:51;119.43;;;50.80;;
56481;SDS011;42384;45.186;19.958;2022-12-19T03:33:19;110.22;;;47.72;;
56481;SDS011;42384;45.186;19.958;2022-12-19T03:35:46;110.80;;;44.00;;
56481;SDS011;42384;45.186;19.958;2022-12-19T03:40:40;113.57;;;46.63;;
56481;SDS011;42384;45.186;19.958;2022-12-19T03:43:07;118.13;;;46.65;;
56481;SDS011;42384;45.186;19.958;2022-12-19T03:48:05;121.93;;;51.50;;
56481;SDS011;42384;45.186;19.958;2022-12-19T03:50:34;120.80;;;50.50;;
56481;SDS011;42384;45.186;19.958;2022-12-19T03:55:36;117.32;;;47.88;;
56481;SDS011;42384;45.186;19.958;2022-12-19T04:00:33;116.07;;;49.67;;
56481;SDS011;42384;45.186;19.958;2022-12-19T04:03:00;118.05;;;49.15;;
56481;SDS011;42384;45.186;19.958;2022-12-19T04:05:27;120.03;;;49.97;;
56481;SDS011;42384;45.186;19.958;2022-12-19T04:07:55;113.65;;;50.38;;
56481;SDS011;42384;45.186;19.958;2022-12-19T04:10:23;117.75;;;47.90;;
56481;SDS011;42384;45.186;19.958;2022-12-19T04:16:11;107.75;;;45.72;;
56481;SDS011;42384;45.186;19.958;2022-12-19T04:18:12;109.03;;;44.58;;
56481;SDS011;42384;45.186;19.958;2022-12-19T04:20:39;113.97;;;44.93;;
56481;SDS011;42384;45.186;19.958;2022-12-19T04:23:09;117.15;;;48.67;;
56481;SDS011;42384;45.186;19.958;2022-12-19T04:25:38;108.47;;;48.63;;
56481;SDS011;42384;45.186;19.958;2022-12-19T04:28:08;104.50;;;45.90;;
56481;SDS011;42384;45.186;19.958;2022-12-19T04:30:38;110.25;;;47.80;;
56481;SDS011;42384;45.186;19.958;2022-12-19T04:35:32;112.07;;;45.10;;
56481;SDS011;42384;45.186;19.958;2022-12-19T04:37:59;105.85;;;43.97;;
56481;SDS011;42384;45.186;19.958;2022-12-19T04:40:25;113.88;;;47.63;;
56481;SDS011;42384;45.186;19.958;2022-12-19T04:42:51;111.97;;;46.80;;
56481;SDS011;42384;45.186;19.958;2022-12-19T04:45:17;91.40;;;36.83;;
56481;SDS011;42384;45.186;19.958;2022-12-19T04:47:44;112.35;;;47.40;;
56481;SDS011;42384;45.186;19.958;2022-12-19T04:50:10;115.13;;;46.03;;
56481;SDS011;42384;45.186;19.958;2022-12-19T04:52:36;105.70;;;47.08;;
56481;SDS011;42384;45.186;19.958;2022-12-19T04:55:02;116.28;;;47.22;;
56481;SDS011;42384;45.186;19.958;2022-12-19T04:57:29;111.35;;;47.40;;
56481;SDS011;42384;45.186;19.958;2022-12-19T04:59:55;89.55;;;35.65;;
56481;SDS011;42384;45.186;19.958;2022-12-19T05:02:21;115.57;;;46.60;;
56481;SDS011;42384;45.186;19.958;2022-12-19T05:04:48;134.25;;;48.65;;
56481;SDS011;42384;45.186;19.958;2022-12-19T05:07:18;121.40;;;47.83;;
56481;SDS011;42384;45.186;19.958;2022-12-19T05:09:44;111.82;;;45.65;;
56481;SDS011;42384;45.186;19.958;2022-12-19T05:12:10;112.68;;;46.75;;
56481;SDS011;42384;45.186;19.958;2022-12-19T05:14:36;123.25;;;49.22;;
56481;SDS011;42384;45.186;19.958;2022-12-19T05:17:03;116.30;;;47.28;;
56481;SDS011;42384;45.186;19.958;2022-12-19T05:19:29;129.07;;;49.70;;
56481;SDS011;42384;45.186;19.958;2022-12-19T05:21:55;126.03;;;47.53;;
56481;SDS011;42384;45.186;19.958;2022-12-19T05:24:21;140.90;;;51.70;;
56481;SDS011;42384;45.186;19.958;2022-12-19T05:26:48;146.48;;;53.33;;
56481;SDS011;42384;45.186;19.958;2022-12-19T05:29:14;553.17;;;61.75;;
56481;SDS011;42384;45.186;19.958;2022-12-19T05:31:41;562.50;;;61.95;;
56481;SDS011;42384;45.186;19.958;2022-12-19T05:34:07;570.40;;;63.42;;
56481;SDS011;42384;45.186;19.958;2022-12-19T05:36:33;351.80;;;57.20;;
56481;SDS011;42384;45.186;19.958;2022-12-19T05:38:59;572.33;;;64.50;;
56481;SDS011;42384;45.186;19.958;2022-12-19T05:41:26;317.73;;;54.42;;
56481;SDS011;42384;45.186;19.958;2022-12-19T05:43:52;346.90;;;56.33;;
56481;SDS011;42384;45.186;19.958;2022-12-19T05:46:19;285.55;;;55.00;;
56481;SDS011;42384;45.186;19.958;2022-12-19T05:48:45;334.05;;;59.55;;
56481;SDS011;42384;45.186;19.958;2022-12-19T05:51:12;324.10;;;59.30;;
56481;SDS011;42384;45.186;19.958;2022-12-19T05:53:38;425.90;;;59.00;;
56481;SDS011;42384;45.186;19.958;2022-12-19T05:56:09;312.23;;;55.22;;
56481;SDS011;42384;45.186;19.958;2022-12-19T05:58:36;321.05;;;59.83;;
56481;SDS011;42384;45.186;19.958;2022-12-19T06:01:04;305.25;;;55.75;;
56481;SDS011;42384;45.186;19.958;2022-12-19T06:03:30;325.13;;;56.58;;
56481;SDS011;42384;45.186;19.958;2022-12-19T06:05:56;318.88;;;58.50;;
56481;SDS011;42384;45.186;19.958;2022-12-19T06:08:22;414.35;;;61.25;;
56481;SDS011;42384;45.186;19.958;2022-12-19T06:10:48;319.80;;;55.03;;
56481;SDS011;42384;45.186;19.958;2022-12-19T06:13:14;382.58;;;59.88;;
56481;SDS011;42384;45.186;19.958;2022-12-19T06:15:41;144.80;;;46.75;;
56481;SDS011;42384;45.186;19.958;2022-12-19T06:18:07;161.57;;;47.75;;
56481;SDS011;42384;45.186;19.958;2022-12-19T06:20:33;219.43;;;52.75;;
56481;SDS011;42384;45.186;19.958;2022-12-19T06:22:59;223.23;;;55.67;;
56481;SDS011;42384;45.186;19.958;2022-12-19T06:25:26;242.20;;;51.08;;
56481;SDS011;42384;45.186;19.958;2022-12-19T06:27:52;295.95;;;56.65;;
56481;SDS011;42384;45.186;19.958;2022-12-19T06:30:18;287.35;;;56.38;;
56481;SDS011;42384;45.186;19.958;2022-12-19T06:32:44;325.88;;;59.45;;
56481;SDS011;42384;45.186;19.958;2022-12-19T06:35:10;319.50;;;58.88;;
56481;SDS011;42384;45.186;19.958;2022-12-19T06:37:36;510.70;;;60.78;;
56481;SDS011;42384;45.186;19.958;2022-12-19T06:40:02;448.60;;;62.85;;
56481;SDS011;42384;45.186;19.958;2022-12-19T06:42:29;397.50;;;59.97;;
56481;SDS011;42384;45.186;19.958;2022-12-19T06:44:55;244.05;;;54.88;;
56481;SDS011;42384;45.186;19.958;2022-12-19T06:47:21;272.30;;;57.05;;
56481;SDS011;42384;45.186;19.958;2022-12-19T06:49:48;375.10;;;53.67;;
56481;SDS011;42384;45.186;19.958;2022-12-19T06:52:14;324.80;;;53.58;;
56481;SDS011;42384;45.186;19.958;2022-12-19T06:54:41;351.67;;;49.85;;
56481;SDS011;42384;45.186;19.958;2022-12-19T06:57:07;298.23;;;50.10;;
56481;SDS011;42384;45.186;19.958;2022-12-19T06:59:33;369.58;;;55.20;;
56481;SDS011;42384;45.186;19.958;2022-12-19T07:04:30;160.13;;;48.17;;
56481;SDS011;42384;45.186;19.958;2022-12-19T07:06:57;231.27;;;51.13;;
56481;SDS011;42384;45.186;19.958;2022-12-19T07:09:24;109.63;;;46.60;;
56481;SDS011;42384;45.186;19.958;2022-12-19T07:11:51;113.97;;;44.10;;
56481;SDS011;42384;45.186;19.958;2022-12-19T07:14:17;144.00;;;46.40;;
56481;SDS011;42384;45.186;19.958;2022-12-19T07:16:43;171.30;;;46.13;;
56481;SDS011;42384;45.186;19.958;2022-12-19T07:19:10;134.77;;;42.30;;
56481;SDS011;42384;45.186;19.958;2022-12-19T07:21:36;136.95;;;41.33;;
56481;SDS011;42384;45.186;19.958;2022-12-19T07:24:03;115.72;;;38.85;;
56481;SDS011;42384;45.186;19.958;2022-12-19T07:26:30;79.32;;;33.60;;
56481;SDS011;42384;45.186;19.958;2022-12-19T07:28:56;87.85;;;36.10;;
56481;SDS011;42384;45.186;19.958;2022-12-19T07:31:22;140.70;;;41.67;;
56481;SDS011;42384;45.186;19.958;2022-12-19T07:33:48;103.88;;;38.92;;
56481;SDS011;42384;45.186;19.958;2022-12-19T07:36:15;123.80;;;40.72;;
56481;SDS011;42384;45.186;19.958;2022-12-19T07:38:41;139.82;;;42.25;;
56481;SDS011;42384;45.186;19.958;2022-12-19T07:41:08;137.90;;;40.80;;
56481;SDS011;42384;45.186;19.958;2022-12-19T07:43:34;174.93;;;42.83;;
56481;SDS011;42384;45.186;19.958;2022-12-19T07:46:00;178.60;;;41.55;;
56481;SDS011;42384;45.186;19.958;2022-12-19T07:48:26;158.63;;;40.05;;
56481;SDS011;42384;45.186;19.958;2022-12-19T07:50:55;164.90;;;44.03;;
56481;SDS011;42384;45.186;19.958;2022-12-19T07:53:21;176.10;;;45.75;;
56481;SDS011;42384;45.186;19.958;2022-12-19T07:55:51;142.38;;;43.22;;
56481;SDS011;42384;45.186;19.958;2022-12-19T07:58:17;128.70;;;42.83;;
56481;SDS011;42384;45.186;19.958;2022-12-19T08:00:43;125.90;;;42.17;;
56481;SDS011;42384;45.186;19.958;2022-12-19T08:03:09;126.15;;;41.03;;
56481;SDS011;42384;45.186;19.958;2022-12-19T08:05:36;120.00;;;39.88;;
56481;SDS011;42384;45.186;19.958;2022-12-19T08:08:02;111.50;;;39.05;;
56481;SDS011;42384;45.186;19.958;2022-12-19T08:10:29;114.75;;;41.58;;
56481;SDS011;42384;45.186;19.958;2022-12-19T08:12:55;132.17;;;42.97;;
56481;SDS011;42384;45.186;19.958;2022-12-19T08:15:21;134.80;;;43.03;;
56481;SDS011;42384;45.186;19.958;2022-12-19T08:17:47;115.55;;;41.92;;
56481;SDS011;42384;45.186;19.958;2022-12-19T08:20:13;138.88;;;43.10;;
56481;SDS011;42384;45.186;19.958;2022-12-19T08:22:39;138.18;;;45.55;;
56481;SDS011;42384;45.186;19.958;2022-12-19T08:25:06;127.80;;;45.83;;
56481;SDS011;42384;45.186;19.958;2022-12-19T08:27:32;120.53;;;44.73;;
56481;SDS011;42384;45.186;19.958;2022-12-19T08:29:59;99.20;;;41.90;;
56481;SDS011;42384;45.186;19.958;2022-12-19T08:32:28;108.65;;;44.20;;
56481;SDS011;42384;45.186;19.958;2022-12-19T08:34:54;116.75;;;45.75;;
56481;SDS011;42384;45.186;19.958;2022-12-19T08:37:20;97.55;;;43.30;;
56481;SDS011;42384;45.186;19.958;2022-12-19T08:39:47;102.53;;;43.37;;
56481;SDS011;42384;45.186;19.958;2022-12-19T08:42:13;111.55;;;48.17;;
56481;SDS011;42384;45.186;19.958;2022-12-19T08:44:39;102.90;;;45.60;;
56481;SDS011;42384;45.186;19.958;2022-12-19T08:47:05;108.55;;;44.33;;
56481;SDS011;42384;45.186;19.958;2022-12-19T08:49:31;106.25;;;44.83;;
56481;SDS011;42384;45.186;19.958;2022-12-19T08:51:57;106.07;;;47.40;;
56481;SDS011;42384;45.186;19.958;2022-12-19T08:54:23;110.40;;;51.50;;
56481;SDS011;42384;45.186;19.958;2022-12-19T08:59:17;103.15;;;46.75;;
56481;SDS011;42384;45.186;19.958;2022-12-19T09:01:43;103.63;;;48.15;;
56481;SDS011;42384;45.186;19.958;2022-12-19T09:04:09;100.63;;;47.13;;
56481;SDS011;42384;45.186;19.958;2022-12-19T09:06:35;101.53;;;47.38;;
56481;SDS011;42384;45.186;19.958;2022-12-19T09:09:02;107.10;;;47.40;;
56481;SDS011;42384;45.186;19.958;2022-12-19T09:11:28;103.95;;;48.03;;
56481;SDS011;42384;45.186;19.958;2022-12-19T09:13:55;101.47;;;47.10;;
56481;SDS011;42384;45.186;19.958;2022-12-19T09:16:23;98.13;;;46.78;;
56481;SDS011;42384;45.186;19.958;2022-12-19T09:18:50;101.47;;;46.90;;
56481;SDS011;42384;45.186;19.958;2022-12-19T09:21:17;99.47;;;46.38;;
56481;SDS011;42384;45.186;19.958;2022-12-19T09:24:02;96.40;;;44.22;;
56481;SDS011;42384;45.186;19.958;2022-12-19T09:26:28;95.25;;;43.63;;
56481;SDS011;42384;45.186;19.958;2022-12-19T09:28:54;96.00;;;45.15;;
56481;SDS011;42384;45.186;19.958;2022-12-19T09:31:21;90.32;;;43.85;;
56481;SDS011;42384;45.186;19.958;2022-12-19T09:33:48;89.90;;;42.67;;
56481;SDS011;42384;45.186;19.958;2022-12-19T09:36:16;94.32;;;44.85;;
56481;SDS011;42384;45.186;19.958;2022-12-19T09:38:43;85.47;;;40.25;;
56481;SDS011;42384;45.186;19.958;2022-12-19T09:46:48;95.03;;;43.92;;
56481;SDS011;42384;45.186;19.958;2022-12-19T09:48:52;92.85;;;43.97;;
56481;SDS011;42384;45.186;19.958;2022-12-19T09:53:54;88.95;;;44.30;;
56481;SDS011;42384;45.186;19.958;2022-12-19T09:56:22;88.28;;;42.97;;
56481;SDS011;42384;45.186;19.958;2022-12-19T09:58:55;86.15;;;41.35;;
56481;SDS011;42384;45.186;19.958;2022-12-19T10:01:25;89.10;;;42.88;;
56481;SDS011;42384;45.186;19.958;2022-12-19T10:03:58;568.55;;;253.35;;
56481;SDS011;42384;45.186;19.958;2022-12-19T10:06:26;294.42;;;128.45;;
56481;SDS011;42384;45.186;19.958;2022-12-19T10:08:54;86.55;;;44.33;;
56481;SDS011;42384;45.186;19.958;2022-12-19T10:14:35;83.65;;;43.97;;
56481;SDS011;42384;45.186;19.958;2022-12-19T10:17:17;89.88;;;45.95;;
56481;SDS011;42384;45.186;19.958;2022-12-19T10:20:07;96.55;;;49.20;;
56481;SDS011;42384;45.186;19.958;2022-12-19T10:23:02;98.55;;;46.35;;
56481;SDS011;42384;45.186;19.958;2022-12-19T10:25:27;101.60;;;44.90;;
56481;SDS011;42384;45.186;19.958;2022-12-19T10:30:38;88.18;;;41.35;;
56481;SDS011;42384;45.186;19.958;2022-12-19T10:33:16;88.00;;;42.42;;
56481;SDS011;42384;45.186;19.958;2022-12-19T10:35:44;91.45;;;45.28;;
56481;SDS011;42384;45.186;19.958;2022-12-19T10:45:59;91.60;;;43.92;;
56481;SDS011;42384;45.186;19.958;2022-12-19T10:48:26;83.90;;;41.15;;
56481;SDS011;42384;45.186;19.958;2022-12-19T10:50:52;85.50;;;42.10;;
56481;SDS011;42384;45.186;19.958;2022-12-19T10:53:28;93.05;;;44.28;;
56481;SDS011;42384;45.186;19.958;2022-12-19T10:55:59;102.63;;;48.67;;
56481;SDS011;42384;45.186;19.958;2022-12-19T10:58:34;92.95;;;46.25;;
56481;SDS011;42384;45.186;19.958;2022-12-19T11:01:01;105.43;;;50.45;;
56481;SDS011;42384;45.186;19.958;2022-12-19T11:03:29;98.53;;;45.53;;
56481;SDS011;42384;45.186;19.958;2022-12-19T11:05:56;94.50;;;46.60;;
56481;SDS011;42384;45.186;19.958;2022-12-19T11:08:23;91.35;;;46.22;;
56481;SDS011;42384;45.186;19.958;2022-12-19T11:10:51;95.78;;;47.40;;
56481;SDS011;42384;45.186;19.958;2022-12-19T11:13:28;98.35;;;45.65;;
56481;SDS011;42384;45.186;19.958;2022-12-19T11:16:04;89.20;;;44.47;;
56481;SDS011;42384;45.186;19.958;2022-12-19T11:21:03;97.72;;;45.42;;
56481;SDS011;42384;45.186;19.958;2022-12-19T11:23:30;90.22;;;45.85;;
56481;SDS011;42384;45.186;19.958;2022-12-19T11:25:58;90.38;;;44.58;;
56481;SDS011;42384;45.186;19.958;2022-12-19T11:28:30;92.13;;;43.60;;
56481;SDS011;42384;45.186;19.958;2022-12-19T11:30:59;87.05;;;45.17;;
56481;SDS011;42384;45.186;19.958;2022-12-19T11:33:27;87.20;;;45.40;;
56481;SDS011;42384;45.186;19.958;2022-12-19T11:35:57;90.13;;;45.95;;
56481;SDS011;42384;45.186;19.958;2022-12-19T11:41:15;89.80;;;42.92;;
56481;SDS011;42384;45.186;19.958;2022-12-19T11:49:08;89.38;;;44.33;;
56481;SDS011;42384;45.186;19.958;2022-12-19T11:51:42;90.82;;;42.05;;
56481;SDS011;42384;45.186;19.958;2022-12-19T11:54:21;83.03;;;37.88;;
56481;SDS011;42384;45.186;19.958;2022-12-19T11:56:49;78.75;;;39.05;;
56481;SDS011;42384;45.186;19.958;2022-12-19T11:59:16;79.53;;;40.42;;
56481;SDS011;42384;45.186;19.958;2022-12-19T12:06:46;77.25;;;39.10;;
56481;SDS011;42384;45.186;19.958;2022-12-19T12:12:06;80.68;;;39.53;;
56481;SDS011;42384;45.186;19.958;2022-12-19T12:24:58;87.80;;;41.03;;
56481;SDS011;42384;45.186;19.958;2022-12-19T12:37:52;78.35;;;38.22;;
56481;SDS011;42384;45.186;19.958;2022-12-19T12:43:05;79.25;;;39.72;;
56481;SDS011;42384;45.186;19.958;2022-12-19T12:48:00;83.78;;;38.05;;
56481;SDS011;42384;45.186;19.958;2022-12-19T12:50:26;73.43;;;36.38;;
56481;SDS011;42384;45.186;19.958;2022-12-19T12:52:57;84.13;;;39.38;;
56481;SDS011;42384;45.186;19.958;2022-12-19T12:55:25;69.20;;;36.55;;
56481;SDS011;42384;45.186;19.958;2022-12-19T12:57:52;73.50;;;36.67;;
56481;SDS011;42384;45.186;19.958;2022-12-19T13:02:45;75.93;;;38.00;;
56481;SDS011;42384;45.186;19.958;2022-12-19T13:07:51;75.07;;;36.67;;
56481;SDS011;42384;45.186;19.958;2022-12-19T13:10:30;74.72;;;37.13;;
56481;SDS011;42384;45.186;19.958;2022-12-19T13:13:01;78.45;;;37.33;;
56481;SDS011;42384;45.186;19.958;2022-12-19T13:27:56;74.13;;;36.55;;
56481;SDS011;42384;45.186;19.958;2022-12-19T13:30:23;74.85;;;36.95;;
56481;SDS011;42384;45.186;19.958;2022-12-19T13:40:27;68.95;;;34.25;;
56481;SDS011;42384;45.186;19.958;2022-12-19T13:45:49;74.00;;;36.22;;
56481;SDS011;42384;45.186;19.958;2022-12-19T13:48:17;72.30;;;35.75;;
56481;SDS011;42384;45.186;19.958;2022-12-19T13:50:47;71.45;;;35.25;;
56481;SDS011;42384;45.186;19.958;2022-12-19T13:53:14;71.78;;;35.97;;
56481;SDS011;42384;45.186;19.958;2022-12-19T13:55:41;69.88;;;35.45;;
56481;SDS011;42384;45.186;19.958;2022-12-19T13:58:13;79.63;;;37.60;;
56481;SDS011;42384;45.186;19.958;2022-12-19T14:00:45;68.35;;;34.75;;
56481;SDS011;42384;45.186;19.958;2022-12-19T14:03:16;68.13;;;34.42;;
56481;SDS011;42384;45.186;19.958;2022-12-19T14:05:42;67.60;;;33.53;;
56481;SDS011;42384;45.186;19.958;2022-12-19T14:08:10;63.08;;;32.55;;
56481;SDS011;42384;45.186;19.958;2022-12-19T14:10:41;72.18;;;35.53;;
56481;SDS011;42384;45.186;19.958;2022-12-19T14:13:11;70.45;;;33.67;;
56481;SDS011;42384;45.186;19.958;2022-12-19T14:15:58;76.18;;;35.75;;
56481;SDS011;42384;45.186;19.958;2022-12-19T14:18:25;72.72;;;33.85;;
56481;SDS011;42384;45.186;19.958;2022-12-19T14:23:37;71.68;;;36.40;;
56481;SDS011;42384;45.186;19.958;2022-12-19T14:26:03;77.00;;;37.55;;
56481;SDS011;42384;45.186;19.958;2022-12-19T14:28:39;72.40;;;36.58;;
56481;SDS011;42384;45.186;19.958;2022-12-19T14:31:07;76.90;;;38.47;;
56481;SDS011;42384;45.186;19.958;2022-12-19T14:33:40;81.70;;;40.22;;
56481;SDS011;42384;45.186;19.958;2022-12-19T14:36:07;80.38;;;37.88;;
56481;SDS011;42384;45.186;19.958;2022-12-19T14:38:33;79.95;;;40.22;;
56481;SDS011;42384;45.186;19.958;2022-12-19T14:43:28;79.95;;;39.95;;
56481;SDS011;42384;45.186;19.958;2022-12-19T14:49:01;82.57;;;41.70;;
56481;SDS011;42384;45.186;19.958;2022-12-19T14:51:35;86.68;;;43.17;;
56481;SDS011;42384;45.186;19.958;2022-12-19T14:56:53;77.80;;;39.45;;
56481;SDS011;42384;45.186;19.958;2022-12-19T15:01:53;79.80;;;39.55;;
56481;SDS011;42384;45.186;19.958;2022-12-19T15:04:22;79.82;;;38.67;;
56481;SDS011;42384;45.186;19.958;2022-12-19T15:06:52;72.38;;;37.13;;
56481;SDS011;42384;45.186;19.958;2022-12-19T15:09:19;75.07;;;38.50;;
56481;SDS011;42384;45.186;19.958;2022-12-19T15:11:46;67.95;;;34.67;;
56481;SDS011;42384;45.186;19.958;2022-12-19T15:14:37;73.43;;;35.22;;
56481;SDS011;42384;45.186;19.958;2022-12-19T15:17:21;69.00;;;34.05;;
56481;SDS011;42384;45.186;19.958;2022-12-19T15:19:48;69.78;;;35.03;;
56481;SDS011;42384;45.186;19.958;2022-12-19T15:22:15;73.63;;;35.20;;
56481;SDS011;42384;45.186;19.958;2022-12-19T15:24:43;68.22;;;33.33;;
56481;SDS011;42384;45.186;19.958;2022-12-19T15:27:11;59.03;;;30.35;;
56481;SDS011;42384;45.186;19.958;2022-12-19T15:29:39;68.03;;;32.50;;
56481;SDS011;42384;45.186;19.958;2022-12-19T15:32:07;73.80;;;32.38;;
56481;SDS011;42384;45.186;19.958;2022-12-19T15:34:34;63.42;;;32.25;;
56481;SDS011;42384;45.186;19.958;2022-12-19T15:37:04;63.70;;;30.98;;
56481;SDS011;42384;45.186;19.958;2022-12-19T15:39:30;60.88;;;30.27;;
56481;SDS011;42384;45.186;19.958;2022-12-19T15:41:57;57.35;;;28.05;;
56481;SDS011;42384;45.186;19.958;2022-12-19T15:44:31;61.38;;;28.73;;
56481;SDS011;42384;45.186;19.958;2022-12-19T15:46:58;54.13;;;29.40;;
56481;SDS011;42384;45.186;19.958;2022-12-19T15:49:24;52.55;;;26.17;;
56481;SDS011;42384;45.186;19.958;2022-12-19T15:51:50;56.92;;;29.48;;
56481;SDS011;42384;45.186;19.958;2022-12-19T15:54:17;57.70;;;26.77;;
56481;SDS011;42384;45.186;19.958;2022-12-19T15:56:44;49.90;;;25.52;;
56481;SDS011;42384;45.186;19.958;2022-12-19T16:01:56;49.85;;;25.65;;
56481;SDS011;42384;45.186;19.958;2022-12-19T16:04:23;52.10;;;26.63;;
56481;SDS011;42384;45.186;19.958;2022-12-19T16:06:50;46.58;;;25.90;;
56481;SDS011;42384;45.186;19.958;2022-12-19T16:09:18;45.60;;;23.55;;
56481;SDS011;42384;45.186;19.958;2022-12-19T16:11:45;48.03;;;23.60;;
56481;SDS011;42384;45.186;19.958;2022-12-19T16:14:11;54.20;;;25.57;;
56481;SDS011;42384;45.186;19.958;2022-12-19T16:16:37;48.20;;;24.13;;
56481;SDS011;42384;45.186;19.958;2022-12-19T16:19:26;52.00;;;26.40;;
56481;SDS011;42384;45.186;19.958;2022-12-19T16:21:50;42.08;;;22.70;;
56481;SDS011;42384;45.186;19.958;2022-12-19T16:24:17;45.13;;;24.02;;
56481;SDS011;42384;45.186;19.958;2022-12-19T16:26:44;45.15;;;22.58;;
56481;SDS011;42384;45.186;19.958;2022-12-19T16:29:19;44.97;;;23.35;;
56481;SDS011;42384;45.186;19.958;2022-12-19T16:31:47;45.28;;;23.50;;
56481;SDS011;42384;45.186;19.958;2022-12-19T16:34:15;45.53;;;23.67;;
56481;SDS011;42384;45.186;19.958;2022-12-19T16:36:42;47.22;;;22.33;;
56481;SDS011;42384;45.186;19.958;2022-12-19T16:39:08;42.30;;;21.40;;
56481;SDS011;42384;45.186;19.958;2022-12-19T16:41:35;40.83;;;21.10;;
56481;SDS011;42384;45.186;19.958;2022-12-19T16:44:02;41.97;;;21.50;;
56481;SDS011;42384;45.186;19.958;2022-12-19T16:46:28;37.35;;;19.35;;
56481;SDS011;42384;45.186;19.958;2022-12-19T16:48:55;41.47;;;21.65;;
56481;SDS011;42384;45.186;19.958;2022-12-19T16:51:22;38.38;;;19.92;;
56481;SDS011;42384;45.186;19.958;2022-12-19T16:53:50;43.00;;;22.15;;
56481;SDS011;42384;45.186;19.958;2022-12-19T16:58:42;41.70;;;21.42;;
56481;SDS011;42384;45.186;19.958;2022-12-19T17:01:09;44.47;;;21.65;;